Plata Pioneer — V7IW7 — position and weather

sailwx.info

Track history (hours):
 
Tides and Currents Weather Stations Pressure Air Temp Water Temp Dewpoint Dewpoint Depression Visibility Wind Speed Wind Dir Waves Ship Positions

Plata Pioneer

Last reported at 2018-Feb-15 10:27 UTC. Time now 2018-Feb-21 06:58 UTC.
Position N 01°25' E 103°14'.

Length 333 m; draft 10.8 m.

Type: Tanker. MMSI: 538006006.

Date/timePositionNaut miles runAvg speedWind from/ knotsBaromVisibWave heightAir tempDewpointWater temp
2018-Feb-15 10:27N 01°25' E 103°14'510.4
2018-Feb-15 09:59N 01°21' E 103°17'510.3
2018-Feb-15 09:30N 01°18' E 103°21'510.2
2018-Feb-15 09:00N 01°14' E 103°24'5 9.5
2018-Feb-15 08:30N 01°13' E 103°29'5 9.1
2018-Feb-15 08:01N 01°12' E 103°33'4 8.6
2018-Feb-15 07:30N 01°12' E 103°38'4 8.0
2018-Feb-15 07:00N 01°10' E 103°41'3 7.0
2018-Feb-15 06:30N 01°09' E 103°45'4 6.8
2018-Feb-15 05:59N 01°10' E 103°48'3 6.8
2018-Feb-15 05:30N 01°12' E 103°51'4 7.3
2018-Feb-15 05:00N 01°13' E 103°54'3 5.9
2018-Feb-15 04:30N 01°15' E 103°56'2 3.2
2018-Feb-15 03:59N 01°15' E 103°54'0 0.0
2018-Feb-15 03:22N 01°15' E 103°54'0 0.0
2018-Feb-15 02:46N 01°15' E 103°54'0 0.2
2018-Feb-15 02:28N 01°15' E 103°54'0 0.0
2018-Feb-15 01:58N 01°15' E 103°54'0 0.0
2018-Feb-15 01:28N 01°15' E 103°54'0 0.0
2018-Feb-15 00:37N 01°15' E 103°54'0 0.0
2018-Feb-15 00:19N 01°15' E 103°54'0 0.0
2018-Feb-14 23:58N 01°15' E 103°54'0 0.0
2018-Feb-14 23:28N 01°15' E 103°54'0 0.0
2018-Feb-14 22:49N 01°15' E 103°54'0 0.0
2018-Feb-14 22:28N 01°15' E 103°54'0 0.0
2018-Feb-14 21:58N 01°15' E 103°54'0 0.0
2018-Feb-14 21:25N 01°15' E 103°54'0 0.0
2018-Feb-14 20:58N 01°15' E 103°54'0 0.0
2018-Feb-14 20:28N 01°15' E 103°54'0 0.0
2018-Feb-14 19:52N 01°15' E 103°54'0 0.0
2018-Feb-14 19:28N 01°15' E 103°54'0 0.0
2018-Feb-14 18:55N 01°15' E 103°54'0 0.0
2018-Feb-14 18:22N 01°15' E 103°54'0 0.0
2018-Feb-14 17:40N 01°15' E 103°54'0 0.0
2018-Feb-14 17:25N 01°15' E 103°54'0 0.0
2018-Feb-14 16:52N 01°15' E 103°54'0 0.0
2018-Feb-14 16:28N 01°15' E 103°54'0 0.0
2018-Feb-14 15:58N 01°15' E 103°54'0 0.0
2018-Feb-14 15:16N 01°15' E 103°54'0 0.0
2018-Feb-14 14:58N 01°15' E 103°54'0 0.0
2018-Feb-14 14:28N 01°15' E 103°54'0 0.0
2018-Feb-14 13:55N 01°15' E 103°54'0 0.1
2018-Feb-14 13:19N 01°15' E 103°54'0 0.0
2018-Feb-14 12:46N 01°15' E 103°54'0 0.0
2018-Feb-14 12:28N 01°15' E 103°54'0 0.1
2018-Feb-14 11:52N 01°15' E 103°54'0 0.0
2018-Feb-14 11:16N 01°15' E 103°54'0 0.3
2018-Feb-14 10:19N 01°15' E 103°55'0 0.2
2018-Feb-14 09:52N 01°15' E 103°55'0 0.0
2018-Feb-14 08:46N 01°16' E 103°55'0 0.0
2018-Feb-14 07:37N 01°16' E 103°55'0 0.1
2018-Feb-14 07:22N 01°16' E 103°55'0 0.1
2018-Feb-14 06:59N 01°16' E 103°55'1 1.9
2018-Feb-14 06:30N 01°15' E 103°55'3 5.3
2018-Feb-14 05:57N 01°16' E 103°58'2 4.4
2018-Feb-14 05:26N 01°16' E 104°00'1 3.3
2018-Feb-14 05:00N 01°16' E 104°02'4 7.8
2018-Feb-14 04:30N 01°16' E 104°05'  
Track history (hours):
 
Tides and Currents Weather Stations Pressure Air Temp Water Temp Dewpoint Dewpoint Depression Visibility Wind Speed Wind Dir Waves Ship Positions

Plata Pioneer

Last reported at 2018-Feb-15 10:27 UTC. Time now 2018-Feb-21 06:58 UTC.
Position N 01°25' E 103°14'.

Length 333 m; draft 10.8 m.

Type: Tanker. MMSI: 538006006.

Date/timePositionNaut miles runAvg speedWind from/ knotsBaromVisibWave heightAir tempDewpointWater temp
2018-Feb-15 10:27N 01°25' E 103°14'510.4
2018-Feb-15 09:59N 01°21' E 103°17'510.3
2018-Feb-15 09:30N 01°18' E 103°21'510.2
2018-Feb-15 09:00N 01°14' E 103°24'5 9.5
2018-Feb-15 08:30N 01°13' E 103°29'5 9.1
2018-Feb-15 08:01N 01°12' E 103°33'4 8.6
2018-Feb-15 07:30N 01°12' E 103°38'4 8.0
2018-Feb-15 07:00N 01°10' E 103°41'3 7.0
2018-Feb-15 06:30N 01°09' E 103°45'4 6.8
2018-Feb-15 05:59N 01°10' E 103°48'3 6.8
2018-Feb-15 05:30N 01°12' E 103°51'4 7.3
2018-Feb-15 05:00N 01°13' E 103°54'3 5.9
2018-Feb-15 04:30N 01°15' E 103°56'2 3.2
2018-Feb-15 03:59N 01°15' E 103°54'0 0.0
2018-Feb-15 03:22N 01°15' E 103°54'0 0.0
2018-Feb-15 02:46N 01°15' E 103°54'0 0.2
2018-Feb-15 02:28N 01°15' E 103°54'0 0.0
2018-Feb-15 01:58N 01°15' E 103°54'0 0.0
2018-Feb-15 01:28N 01°15' E 103°54'0 0.0
2018-Feb-15 00:37N 01°15' E 103°54'0 0.0
2018-Feb-15 00:19N 01°15' E 103°54'0 0.0
2018-Feb-14 23:58N 01°15' E 103°54'0 0.0
2018-Feb-14 23:28N 01°15' E 103°54'0 0.0
2018-Feb-14 22:49N 01°15' E 103°54'0 0.0
2018-Feb-14 22:28N 01°15' E 103°54'0 0.0
2018-Feb-14 21:58N 01°15' E 103°54'0 0.0
2018-Feb-14 21:25N 01°15' E 103°54'0 0.0
2018-Feb-14 20:58N 01°15' E 103°54'0 0.0
2018-Feb-14 20:28N 01°15' E 103°54'0 0.0
2018-Feb-14 19:52N 01°15' E 103°54'0 0.0
2018-Feb-14 19:28N 01°15' E 103°54'0 0.0
2018-Feb-14 18:55N 01°15' E 103°54'0 0.0
2018-Feb-14 18:22N 01°15' E 103°54'0 0.0
2018-Feb-14 17:40N 01°15' E 103°54'0 0.0
2018-Feb-14 17:25N 01°15' E 103°54'0 0.0
2018-Feb-14 16:52N 01°15' E 103°54'0 0.0
2018-Feb-14 16:28N 01°15' E 103°54'0 0.0
2018-Feb-14 15:58N 01°15' E 103°54'0 0.0
2018-Feb-14 15:16N 01°15' E 103°54'0 0.0
2018-Feb-14 14:58N 01°15' E 103°54'0 0.0
2018-Feb-14 14:28N 01°15' E 103°54'0 0.0
2018-Feb-14 13:55N 01°15' E 103°54'0 0.1
2018-Feb-14 13:19N 01°15' E 103°54'0 0.0
2018-Feb-14 12:46N 01°15' E 103°54'0 0.0
2018-Feb-14 12:28N 01°15' E 103°54'0 0.1
2018-Feb-14 11:52N 01°15' E 103°54'0 0.0
2018-Feb-14 11:16N 01°15' E 103°54'0 0.3
2018-Feb-14 10:19N 01°15' E 103°55'0 0.2
2018-Feb-14 09:52N 01°15' E 103°55'0 0.0
2018-Feb-14 08:46N 01°16' E 103°55'0 0.0
2018-Feb-14 07:37N 01°16' E 103°55'0 0.1
2018-Feb-14 07:22N 01°16' E 103°55'0 0.1
2018-Feb-14 06:59N 01°16' E 103°55'1 1.9
2018-Feb-14 06:30N 01°15' E 103°55'3 5.3
2018-Feb-14 05:57N 01°16' E 103°58'2 4.4
2018-Feb-14 05:26N 01°16' E 104°00'1 3.3
2018-Feb-14 05:00N 01°16' E 104°02'4 7.8
2018-Feb-14 04:30N 01°16' E 104°05'  

Dump ship's entire track history